This is the latest recevied weather packets stored in our database for station/object DC4XK-10. If no packets are shown the sender has not sent any weather packets the latest 10 day(s).
| Time | Temp. | Humidity | Pressure | Rain* | Wind** | Luminosity | Snow |
|---|---|---|---|---|---|---|---|
| 1777487931 | 10.56° C | 54% | 1029.3 hPa | 0 mm | 0 m/s | - | - |
| 1777487331 | 11.67° C | 49% | 1029.3 hPa | 0 mm | 0 m/s | - | - |
| 1777486731 | 13.33° C | 45% | 1029.3 hPa | 0 mm | 0 m/s | - | - |
| 1777486131 | 13.89° C | 42% | 1029.1 hPa | 0 mm | 0 m/s | - | - |
| 1777485531 | 13.89° C | 43% | 1029 hPa | 0 mm | 0 m/s | - | - |
| 1777484932 | 15° C | 39% | 1029.1 hPa | 0 mm | 0 m/s | - | - |
| 1777484331 | 14.44° C | 40% | 1029 hPa | 0 mm | 0 m/s | - | - |
| 1777483731 | 13.89° C | 41% | 1029.1 hPa | 0 mm | 0 m/s | - | - |
| 1777483132 | 13.89° C | 41% | 1029.1 hPa | 0 mm | 0 m/s | - | - |
| 1777482531 | 14.44° C | 39% | 1029 hPa | 0 mm | 0 m/s | - | - |
| 1777481931 | 16.11° C | 38% | 1029.1 hPa | 0 mm | 0.45 m/s, 25° | - | - |
| 1777481333 | 14.44° C | 41% | 1028.9 hPa | 0 mm | 0.45 m/s, 45° | - | - |
| 1777480731 | 15° C | 38% | 1029 hPa | 0 mm | 0 m/s | - | - |
| 1777480131 | 14.44° C | 40% | 1029.2 hPa | 0 mm | 0.45 m/s, 79° | - | - |
| 1777479534 | 15° C | 38% | 1029.2 hPa | 0 mm | 0.45 m/s, 54° | - | - |
| 1777478930 | 14.44° C | 41% | 1028.8 hPa | 0 mm | 0.45 m/s, 68° | - | - |
| 1777478331 | 14.44° C | 40% | 1028.8 hPa | 0 mm | 0.45 m/s, 65° | - | - |
| 1777477733 | 15.56° C | 39% | 1028.8 hPa | 0 mm | 0.45 m/s, 85° | - | - |
| 1777477131 | 17.78° C | 35% | 1028.9 hPa | 0 mm | 0 m/s | - | - |
| 1777476531 | 16.67° C | 36% | 1028.9 hPa | 0 mm | 0.89 m/s, 54° | - | - |
| 1777475930 | 16.11° C | 37% | 1028.8 hPa | 0 mm | 0 m/s | - | - |
| 1777475331 | 15.56° C | 39% | 1028.9 hPa | 0 mm | 0 m/s | - | - |
| 1777474731 | 16.11° C | 39% | 1028.9 hPa | 0 mm | 0 m/s | - | - |
| 1777474131 | 16.11° C | 38% | 1028.8 hPa | 0 mm | 0.45 m/s, 58° | - | - |
| 1777473530 | 15.56° C | 39% | 1028.8 hPa | 0 mm | 0 m/s | - | - |
* Rain latest hour (hover to see other rain measurements)
** Current wind speed in m/s (hover to see current wind gust speed)